Time;durP1;ratioP1;P1;durP2;ratioP2;P2;SDS_P1;SDS_P2;PMS_P1;PMS_P2;Temp;Humidity;BMP_temperature;BMP_pressure;BME280_temperature;BME280_humidity;BME280_pressure;Samples;Min_cycle;Max_cycle;Signal;HPM_P1;HPM_P2
2021/05/26 00:29:31;;;;;;;4.32;3.65;;;;;;;;;;5200877;27;20031;-67
2021/05/26 00:31:57;;;;;;;6.75;3.65;;;;;;;;;;5200996;27;20113;-68
2021/05/26 00:34:23;;;;;;;7.62;4.05;;;;;;;;;;5201794;27;20436;-67
2021/05/26 00:36:49;;;;;;;5.95;3.85;;;;;;;;;;5201725;27;20093;-67
2021/05/26 00:39:15;;;;;;;7.32;3.72;;;;;;;;;;5201724;27;20120;-68
2021/05/26 00:41:41;;;;;;;5.75;4.00;;;;;;;;;;5201518;27;20104;-67
2021/05/26 00:44:07;;;;;;;4.82;3.47;;;;;;;;;;5201704;27;20165;-67
2021/05/26 00:46:43;;;;;;;6.40;3.53;;;;;;;;;;5202019;27;20500;-67
2021/05/26 00:49:09;;;;;;;5.45;3.65;;;;;;;;;;5200198;27;20074;-68
2021/05/26 00:51:35;;;;;;;4.18;3.37;;;;;;;;;;5199898;27;20084;-68
2021/05/26 00:54:01;;;;;;;5.32;3.37;;;;;;;;;;5201855;27;20145;-67
2021/05/26 00:56:27;;;;;;;7.70;3.47;;;;;;;;;;5201563;27;20175;-67
2021/05/26 00:58:53;;;;;;;4.40;3.22;;;;;;;;;;5201807;27;20089;-67
2021/05/26 01:01:19;;;;;;;5.85;2.95;;;;;;;;;;5201709;27;20069;-67
2021/05/26 01:03:45;;;;;;;3.83;3.10;;;;;;;;;;5201482;27;20164;-68
2021/05/26 01:06:11;;;;;;;8.27;2.97;;;;;;;;;;5201707;27;20398;-67
2021/05/26 01:08:37;;;;;;;4.47;3.00;;;;;;;;;;5201406;27;20068;-66
2021/05/26 01:11:04;;;;;;;4.37;3.17;;;;;;;;;;5201398;27;20086;-67
2021/05/26 01:13:30;;;;;;;3.92;3.10;;;;;;;;;;5200039;27;20159;-66
2021/05/26 01:15:56;;;;;;;3.53;2.60;;;;;;;;;;5201547;27;20080;-67
2021/05/26 01:18:27;;;;;;;5.22;2.92;;;;;;;;;;5201439;27;20109;-67
2021/05/26 01:20:54;;;;;;;2.78;2.53;;;;;;;;;;5199792;27;20085;-67
2021/05/26 01:23:20;;;;;;;2.58;2.30;;;;;;;;;;5201708;27;20058;-67
2021/05/26 01:25:50;;;;;;;7.57;2.60;;;;;;;;;;5199660;27;20108;-67
2021/05/26 01:28:16;;;;;;;4.22;2.55;;;;;;;;;;5200976;27;20428;-68
2021/05/26 01:30:42;;;;;;;2.80;2.60;;;;;;;;;;5199520;27;20196;-67
2021/05/26 01:33:08;;;;;;;9.60;3.08;;;;;;;;;;5199500;27;20113;-67
2021/05/26 01:35:38;;;;;;;4.50;2.70;;;;;;;;;;5199717;27;20069;-67
2021/05/26 01:38:04;;;;;;;2.80;2.50;;;;;;;;;;5201142;27;20081;-68
2021/05/26 01:40:30;;;;;;;2.65;2.40;;;;;;;;;;5199666;27;20314;-68
2021/05/26 01:42:56;;;;;;;3.85;3.35;;;;;;;;;;5181931;27;20083;-68
2021/05/26 01:45:21;;;;;;;6.20;2.75;;;;;;;;;;5201288;27;20561;-69
2021/05/26 01:47:51;;;;;;;3.03;2.40;;;;;;;;;;5201397;27;20082;-69
2021/05/26 01:50:20;;;;;;;2.70;2.47;;;;;;;;;;5203633;27;20109;-69
2021/05/26 01:52:54;;;;;;;5.82;2.87;;;;;;;;;;5201493;27;20066;-67
2021/05/26 01:55:20;;;;;;;4.87;2.65;;;;;;;;;;5202544;27;20389;-68
2021/05/26 01:57:46;;;;;;;5.22;3.00;;;;;;;;;;5201329;27;20096;-68
2021/05/26 02:00:14;;;;;;;2.65;2.20;;;;;;;;;;5201863;27;20093;-68
2021/05/26 02:02:40;;;;;;;4.05;2.40;;;;;;;;;;5201752;27;20500;-67
2021/05/26 02:05:08;;;;;;;4.07;2.40;;;;;;;;;;5202822;27;20473;-66
2021/05/26 02:07:35;;;;;;;2.75;2.47;;;;;;;;;;5202093;27;20093;-68
2021/05/26 02:10:06;;;;;;;2.70;2.30;;;;;;;;;;5207430;27;20061;-67
2021/05/26 02:12:34;;;;;;;3.80;2.70;;;;;;;;;;5223498;27;20066;-68
2021/05/26 02:15:01;;;;;;;4.70;2.80;;;;;;;;;;5222219;27;20089;-67
2021/05/26 02:17:27;;;;;;;4.18;3.17;;;;;;;;;;5222475;27;20147;-68
2021/05/26 02:19:53;;;;;;;2.35;2.15;;;;;;;;;;5214009;27;20405;-68
2021/05/26 02:22:19;;;;;;;5.12;2.85;;;;;;;;;;5216462;27;20117;-68
2021/05/26 02:24:45;;;;;;;2.75;2.50;;;;;;;;;;5204960;27;20086;-68
2021/05/26 02:27:12;;;;;;;4.32;2.85;;;;;;;;;;5199436;27;20092;-68
2021/05/26 02:29:38;;;;;;;3.67;2.25;;;;;;;;;;5199321;27;20440;-67
2021/05/26 02:32:05;;;;;;;3.53;2.40;;;;;;;;;;5200954;27;20073;-67
2021/05/26 02:34:31;;;;;;;3.47;2.20;;;;;;;;;;5201863;27;20093;-67
2021/05/26 02:36:57;;;;;;;5.12;2.05;;;;;;;;;;5201129;27;20101;-68
2021/05/26 02:39:23;;;;;;;3.40;2.45;;;;;;;;;;5201060;27;20511;-68
2021/05/26 02:41:49;;;;;;;2.22;2.03;;;;;;;;;;5199835;27;20112;-67
2021/05/26 02:44:15;;;;;;;4.15;2.50;;;;;;;;;;5201391;27;20085;-67
2021/05/26 02:46:41;;;;;;;4.78;1.92;;;;;;;;;;5201196;27;20152;-67
2021/05/26 02:49:07;;;;;;;2.80;2.12;;;;;;;;;;5201537;27;20081;-66
2021/05/26 02:51:33;;;;;;;3.65;2.08;;;;;;;;;;5202545;27;20070;-66
2021/05/26 02:54:00;;;;;;;2.67;1.90;;;;;;;;;;5200987;27;20089;-66
2021/05/26 02:56:26;;;;;;;8.18;2.30;;;;;;;;;;5202501;27;20063;-68
2021/05/26 02:58:52;;;;;;;1.90;1.80;;;;;;;;;;5202489;27;20088;-67
2021/05/26 03:01:17;;;;;;;3.97;1.90;;;;;;;;;;5202287;27;20117;-67
2021/05/26 03:03:43;;;;;;;4.15;2.17;;;;;;;;;;5200815;27;20089;-66
2021/05/26 03:06:09;;;;;;;5.20;2.10;;;;;;;;;;5202239;27;20492;-66
2021/05/26 03:08:35;;;;;;;3.10;2.20;;;;;;;;;;5202500;27;20082;-67
2021/05/26 03:11:01;;;;;;;2.12;1.92;;;;;;;;;;5202270;27;20092;-67
2021/05/26 03:13:27;;;;;;;2.35;2.15;;;;;;;;;;5202168;27;20089;-74
2021/05/26 03:15:53;;;;;;;5.03;2.10;;;;;;;;;;5200571;27;20104;-66
2021/05/26 03:18:20;;;;;;;3.95;1.87;;;;;;;;;;5202530;27;20081;-66
2021/05/26 03:20:46;;;;;;;2.53;2.30;;;;;;;;;;5202255;27;20069;-67
2021/05/26 03:23:13;;;;;;;6.10;2.40;;;;;;;;;;5200364;27;20066;-68
2021/05/26 03:25:39;;;;;;;2.45;1.90;;;;;;;;;;5200558;27;20182;-68
2021/05/26 03:28:05;;;;;;;1.98;1.70;;;;;;;;;;5200072;27;20175;-68
2021/05/26 03:30:31;;;;;;;3.70;2.05;;;;;;;;;;5201061;27;20108;-68
2021/05/26 03:32:57;;;;;;;2.70;2.15;;;;;;;;;;5199879;27;20176;-66
2021/05/26 03:35:23;;;;;;;2.35;2.10;;;;;;;;;;5200203;27;20074;-73
2021/05/26 03:37:49;;;;;;;2.78;2.12;;;;;;;;;;5200198;27;20203;-68
2021/05/26 03:40:16;;;;;;;11.48;2.22;;;;;;;;;;5198501;27;20196;-68
2021/05/26 03:42:42;;;;;;;2.45;2.25;;;;;;;;;;5200410;27;20521;-68
2021/05/26 03:45:09;;;;;;;3.22;2.00;;;;;;;;;;5198846;27;20194;-69
2021/05/26 03:47:36;;;;;;;2.33;1.95;;;;;;;;;;5201785;27;20492;-70
2021/05/26 03:50:02;;;;;;;1.70;1.60;;;;;;;;;;5201749;27;20370;-67
2021/05/26 03:52:28;;;;;;;2.22;1.65;;;;;;;;;;5201794;27;20081;-70
2021/05/26 03:54:54;;;;;;;2.50;1.60;;;;;;;;;;5201855;27;20093;-68
2021/05/26 03:57:20;;;;;;;3.03;1.50;;;;;;;;;;5202176;27;20081;-68
2021/05/26 03:59:46;;;;;;;3.10;1.67;;;;;;;;;;5202254;27;20069;-69
2021/05/26 04:02:12;;;;;;;1.73;1.62;;;;;;;;;;5200098;27;20444;-69
2021/05/26 04:04:41;;;;;;;3.17;1.77;;;;;;;;;;5200040;27;20601;-69
2021/05/26 04:07:07;;;;;;;3.40;1.50;;;;;;;;;;5200166;27;20081;-69
2021/05/26 04:09:33;;;;;;;4.37;1.70;;;;;;;;;;5200512;27;20089;-70
2021/05/26 04:11:59;;;;;;;3.58;1.90;;;;;;;;;;5200053;27;20089;-70
2021/05/26 04:14:25;;;;;;;3.37;1.62;;;;;;;;;;5201794;27;20101;-70
2021/05/26 04:16:51;;;;;;;5.10;1.95;;;;;;;;;;5199925;27;20545;-70
2021/05/26 04:19:18;;;;;;;2.12;1.60;;;;;;;;;;5201773;27;20510;-71
2021/05/26 04:21:44;;;;;;;2.45;2.15;;;;;;;;;;5201696;27;20078;-69
2021/05/26 04:24:10;;;;;;;2.10;1.90;;;;;;;;;;5201758;27;20105;-69
2021/05/26 04:26:36;;;;;;;9.23;2.30;;;;;;;;;;5201947;27;20128;-73
2021/05/26 04:29:02;;;;;;;2.65;1.90;;;;;;;;;;5201469;27;20422;-69
2021/05/26 04:31:28;;;;;;;1.52;1.42;;;;;;;;;;5201743;27;20170;-69
2021/05/26 04:33:54;;;;;;;2.33;2.03;;;;;;;;;;5201986;27;20105;-69
2021/05/26 04:36:20;;;;;;;2.40;1.70;;;;;;;;;;5201900;27;20192;-69
2021/05/26 04:38:46;;;;;;;4.60;2.17;;;;;;;;;;5201567;27;20412;-69
2021/05/26 04:41:12;;;;;;;4.32;2.05;;;;;;;;;;5201689;27;20560;-70
2021/05/26 04:43:38;;;;;;;3.12;1.87;;;;;;;;;;5200152;27;20078;-69
2021/05/26 04:46:04;;;;;;;5.53;2.20;;;;;;;;;;5201596;27;20062;-67
2021/05/26 04:48:31;;;;;;;6.70;1.87;;;;;;;;;;5201558;27;20164;-69
2021/05/26 04:50:57;;;;;;;4.68;1.80;;;;;;;;;;5199667;27;20080;-68
2021/05/26 04:53:23;;;;;;;5.03;1.70;;;;;;;;;;5200071;27;20489;-68
2021/05/26 04:55:48;;;;;;;3.17;1.98;;;;;;;;;;5201500;27;20108;-70
2021/05/26 04:58:15;;;;;;;3.15;1.90;;;;;;;;;;5201510;27;20161;-69
2021/05/26 05:00:41;;;;;;;1.98;1.77;;;;;;;;;;5201523;27;20088;-70
2021/05/26 05:03:07;;;;;;;4.10;2.10;;;;;;;;;;5203354;27;20148;-67
2021/05/26 05:05:33;;;;;;;3.17;1.90;;;;;;;;;;5201734;27;20497;-73
2021/05/26 05:08:00;;;;;;;2.85;2.17;;;;;;;;;;5199714;27;20089;-67
2021/05/26 05:10:26;;;;;;;3.83;2.28;;;;;;;;;;5201814;27;20073;-68
2021/05/26 05:12:52;;;;;;;5.47;2.30;;;;;;;;;;5202861;27;20157;-69
2021/05/26 05:15:18;;;;;;;3.00;1.90;;;;;;;;;;5200076;27;20133;-69
2021/05/26 05:17:48;;;;;;;2.90;1.65;;;;;;;;;;5202762;27;20081;-69
2021/05/26 05:20:15;;;;;;;5.07;1.80;;;;;;;;;;5201913;27;20085;-68
2021/05/26 05:22:41;;;;;;;1.70;1.60;;;;;;;;;;5203160;27;20493;-68
2021/05/26 05:25:08;;;;;;;4.70;1.73;;;;;;;;;;5206216;27;20096;-68
2021/05/26 05:27:34;;;;;;;2.05;1.60;;;;;;;;;;5203733;27;20104;-68
2021/05/26 05:30:00;;;;;;;1.20;1.17;;;;;;;;;;5206331;27;20074;-70
2021/05/26 05:32:26;;;;;;;2.35;1.45;;;;;;;;;;5207230;27;20168;-69
2021/05/26 05:34:52;;;;;;;6.68;1.83;;;;;;;;;;5208019;27;20512;-70
2021/05/26 05:37:31;;;;;;;1.90;1.35;;;;;;;;;;5205045;27;20403;-71
2021/05/26 05:39:57;;;;;;;1.52;1.35;;;;;;;;;;5203907;27;20082;-69
2021/05/26 05:42:23;;;;;;;1.15;1.10;;;;;;;;;;5205693;27;20191;-71
2021/05/26 05:44:49;;;;;;;2.90;1.83;;;;;;;;;;5202096;27;20587;-71
2021/05/26 05:47:15;;;;;;;2.80;1.70;;;;;;;;;;5202036;27;20090;-71
2021/05/26 05:49:41;;;;;;;10.18;1.92;;;;;;;;;;5200476;27;20089;-71
2021/05/26 05:52:10;;;;;;;1.70;1.58;;;;;;;;;;5200361;27;20089;-71
2021/05/26 05:54:36;;;;;;;1.33;1.23;;;;;;;;;;5202166;27;20178;-70
2021/05/26 05:57:02;;;;;;;1.42;1.30;;;;;;;;;;5217751;27;20590;-71
2021/05/26 05:59:28;;;;;;;1.58;1.30;;;;;;;;;;5201252;27;20082;-71
2021/05/26 06:01:54;;;;;;;2.95;1.40;;;;;;;;;;5201082;27;20512;-71
2021/05/26 06:04:20;;;;;;;2.10;1.40;;;;;;;;;;5201265;27;20108;-70
2021/05/26 06:06:46;;;;;;;1.50;1.40;;;;;;;;;;5201102;27;20086;-70
2021/05/26 06:09:12;;;;;;;4.03;1.75;;;;;;;;;;5201242;27;20117;-71
2021/05/26 06:11:38;;;;;;;3.15;1.60;;;;;;;;;;5201280;27;20081;-71
2021/05/26 06:14:07;;;;;;;4.85;1.67;;;;;;;;;;5201173;27;20188;-71
2021/05/26 06:16:37;;;;;;;3.83;1.40;;;;;;;;;;5199548;27;20475;-71
2021/05/26 06:19:03;;;;;;;5.20;1.67;;;;;;;;;;5199827;27;20084;-71
2021/05/26 06:21:29;;;;;;;2.35;1.50;;;;;;;;;;5199534;27;20100;-71
2021/05/26 06:23:55;;;;;;;2.83;1.50;;;;;;;;;;5202947;27;20183;-71
2021/05/26 06:26:21;;;;;;;3.08;1.50;;;;;;;;;;5204157;27;20193;-71
2021/05/26 06:28:47;;;;;;;2.40;1.40;;;;;;;;;;5203240;27;20630;-71
2021/05/26 06:31:13;;;;;;;3.05;2.15;;;;;;;;;;5202854;27;20124;-72
2021/05/26 06:33:42;;;;;;;6.07;1.62;;;;;;;;;;5200996;27;20070;-72
2021/05/26 06:36:09;;;;;;;1.60;1.50;;;;;;;;;;5200886;27;20108;-71
2021/05/26 06:38:36;;;;;;;2.17;1.42;;;;;;;;;;5202710;27;20078;-69
2021/05/26 06:41:02;;;;;;;3.33;1.52;;;;;;;;;;5202742;27;20093;-69
2021/05/26 06:43:27;;;;;;;1.90;1.70;;;;;;;;;;5200832;27;20468;-69
2021/05/26 06:45:53;;;;;;;3.20;1.70;;;;;;;;;;5201480;27;20079;-69
2021/05/26 06:48:19;;;;;;;4.00;1.60;;;;;;;;;;5201387;27;20061;-69
2021/05/26 06:50:45;;;;;;;6.20;1.62;;;;;;;;;;5201262;27;20576;-70
2021/05/26 06:53:11;;;;;;;7.90;1.65;;;;;;;;;;5184097;27;20179;-70
2021/05/26 06:55:37;;;;;;;8.95;1.73;;;;;;;;;;5203127;27;20089;-69
2021/05/26 06:58:03;;;;;;;3.05;1.77;;;;;;;;;;5203754;27;20094;-70
2021/05/26 07:00:30;;;;;;;1.77;1.67;;;;;;;;;;5203203;27;20097;-69
2021/05/26 07:02:56;;;;;;;2.35;1.50;;;;;;;;;;5203145;27;20089;-68
2021/05/26 07:05:27;;;;;;;1.65;1.45;;;;;;;;;;5202888;27;20073;-70
2021/05/26 07:07:53;;;;;;;1.85;1.52;;;;;;;;;;5203501;27;20066;-70
2021/05/26 07:10:19;;;;;;;3.05;1.58;;;;;;;;;;5202738;27;20420;-69
2021/05/26 07:12:50;;;;;;;2.08;1.65;;;;;;;;;;5203254;27;20155;-69
2021/05/26 07:15:17;;;;;;;3.90;1.65;;;;;;;;;;5204274;27;20081;-69
2021/05/26 07:17:43;;;;;;;2.17;1.60;;;;;;;;;;5203699;27;20078;-69
2021/05/26 07:20:12;;;;;;;3.83;1.80;;;;;;;;;;5204148;27;20089;-69
2021/05/26 07:22:38;;;;;;;4.32;1.92;;;;;;;;;;5202798;27;20081;-69
2021/05/26 07:25:05;;;;;;;4.80;1.65;;;;;;;;;;5203018;27;20085;-69
2021/05/26 07:27:31;;;;;;;3.40;1.55;;;;;;;;;;5202690;27;20089;-69
2021/05/26 07:29:57;;;;;;;7.22;1.90;;;;;;;;;;5202219;27;20078;-68
2021/05/26 07:32:23;;;;;;;2.78;1.50;;;;;;;;;;5202266;27;20070;-68
2021/05/26 07:34:50;;;;;;;1.80;1.70;;;;;;;;;;5202123;27;20062;-68
2021/05/26 07:37:16;;;;;;;3.00;1.80;;;;;;;;;;5201933;27;20085;-68
2021/05/26 07:39:43;;;;;;;3.28;1.80;;;;;;;;;;5200412;27;20096;-68
2021/05/26 07:42:12;;;;;;;4.50;1.80;;;;;;;;;;5201825;27;20160;-72
2021/05/26 07:44:38;;;;;;;2.05;1.48;;;;;;;;;;5202030;27;20098;-68
2021/05/26 07:47:04;;;;;;;1.87;1.58;;;;;;;;;;5202296;27;20496;-69
2021/05/26 07:49:30;;;;;;;2.25;1.40;;;;;;;;;;5202882;27;20109;-68
2021/05/26 07:52:02;;;;;;;3.53;1.75;;;;;;;;;;5201588;27;20693;-68
2021/05/26 07:54:28;;;;;;;2.90;1.35;;;;;;;;;;5202163;27;20084;-67
2021/05/26 07:56:56;;;;;;;2.83;1.80;;;;;;;;;;5201866;27;20519;-68
2021/05/26 07:59:22;;;;;;;2.05;1.40;;;;;;;;;;5201928;27;20168;-68
2021/05/26 08:01:48;;;;;;;2.72;1.67;;;;;;;;;;5202145;27;20077;-68
2021/05/26 08:04:14;;;;;;;2.60;1.40;;;;;;;;;;5201977;27;20513;-67
2021/05/26 08:06:40;;;;;;;5.72;1.70;;;;;;;;;;5201851;27;20066;-68
2021/05/26 08:09:06;;;;;;;1.20;1.17;;;;;;;;;;5202099;27;20472;-68
2021/05/26 08:11:32;;;;;;;1.45;1.35;;;;;;;;;;5201879;27;20085;-68
2021/05/26 08:13:58;;;;;;;1.58;1.30;;;;;;;;;;5201846;27;20448;-69
2021/05/26 08:16:24;;;;;;;1.20;1.20;;;;;;;;;;5199972;27;20089;-69
2021/05/26 08:18:50;;;;;;;1.77;1.65;;;;;;;;;;5201614;27;20082;-69
2021/05/26 08:21:17;;;;;;;1.60;1.50;;;;;;;;;;5201628;27;20192;-69
2021/05/26 08:23:43;;;;;;;3.40;1.73;;;;;;;;;;5201855;27;20089;-69
2021/05/26 08:26:14;;;;;;;3.87;1.50;;;;;;;;;;5199931;27;20155;-69
2021/05/26 08:28:40;;;;;;;2.17;1.50;;;;;;;;;;5200187;27;20435;-68
2021/05/26 08:31:07;;;;;;;2.50;1.75;;;;;;;;;;5200077;27;20066;-68
2021/05/26 08:33:33;;;;;;;4.00;1.67;;;;;;;;;;5201509;27;20085;-68
2021/05/26 08:35:59;;;;;;;2.08;1.60;;;;;;;;;;5201436;27;20720;-68
2021/05/26 08:38:25;;;;;;;2.37;1.65;;;;;;;;;;5201449;27;20097;-68
2021/05/26 08:40:51;;;;;;;4.50;1.58;;;;;;;;;;5199807;27;20105;-68
2021/05/26 08:43:16;;;;;;;1.15;1.15;;;;;;;;;;5201335;27;20078;-69
2021/05/26 08:45:43;;;;;;;4.50;2.03;;;;;;;;;;5201402;27;20224;-68
2021/05/26 08:48:10;;;;;;;2.97;2.03;;;;;;;;;;5201249;27;20087;-68
2021/05/26 08:50:36;;;;;;;3.25;1.52;;;;;;;;;;5200179;27;20496;-68
2021/05/26 08:53:03;;;;;;;3.20;1.52;;;;;;;;;;5200027;27;20112;-69
2021/05/26 08:55:29;;;;;;;4.93;1.87;;;;;;;;;;5201477;27;20088;-69
2021/05/26 08:57:59;;;;;;;1.65;1.55;;;;;;;;;;5182167;27;20491;-69
2021/05/26 09:00:25;;;;;;;2.85;1.67;;;;;;;;;;5199651;27;20172;-68
2021/05/26 09:02:51;;;;;;;2.75;1.67;;;;;;;;;;5201091;27;20086;-68
2021/05/26 09:05:22;;;;;;;4.47;1.92;;;;;;;;;;5202336;27;20101;-68
2021/05/26 09:07:48;;;;;;;2.85;1.62;;;;;;;;;;5199705;27;20081;-68
2021/05/26 09:10:13;;;;;;;2.83;1.60;;;;;;;;;;5201183;27;20100;-68
2021/05/26 09:12:44;;;;;;;4.18;1.90;;;;;;;;;;5201267;27;20188;-68
2021/05/26 09:15:16;;;;;;;1.75;1.48;;;;;;;;;;5201123;27;20448;-69
2021/05/26 09:17:47;;;;;;;3.03;1.65;;;;;;;;;;5200951;27;20190;-69
2021/05/26 09:20:15;;;;;;;4.03;1.77;;;;;;;;;;5201145;27;20482;-69
2021/05/26 09:23:17;;;;;;;2.08;1.65;;;;;;;;;;5200967;27;20080;-69
2021/05/26 09:25:46;;;;;;;5.00;2.10;;;;;;;;;;5186820;27;20504;-68
2021/05/26 09:28:16;;;;;;;5.22;1.65;;;;;;;;;;5201067;27;20158;-68
2021/05/26 09:30:42;;;;;;;2.72;1.58;;;;;;;;;;5200874;27;20077;-69
2021/05/26 09:33:28;;;;;;;2.03;1.55;;;;;;;;;;5200918;27;20077;-68
2021/05/26 09:36:21;;;;;;;3.25;1.70;;;;;;;;;;5200895;27;20144;-68
2021/05/26 09:39:02;;;;;;;4.40;1.50;;;;;;;;;;5200805;27;20073;-68
2021/05/26 09:41:32;;;;;;;3.75;1.83;;;;;;;;;;5199430;27;20077;-67
2021/05/26 09:44:11;;;;;;;3.58;1.60;;;;;;;;;;5200911;27;20191;-68
2021/05/26 09:46:38;;;;;;;3.95;1.60;;;;;;;;;;5201094;27;20613;-68
2021/05/26 09:49:17;;;;;;;5.40;1.92;;;;;;;;;;5200744;27;20579;-66
2021/05/26 09:51:44;;;;;;;3.75;1.73;;;;;;;;;;5201005;27;20062;-68
2021/05/26 09:54:23;;;;;;;3.45;1.50;;;;;;;;;;5200761;27;20086;-68
2021/05/26 09:56:54;;;;;;;1.48;1.37;;;;;;;;;;5200754;27;20179;-69
2021/05/26 09:59:20;;;;;;;3.05;2.15;;;;;;;;;;5200819;27;20472;-68
2021/05/26 10:01:47;;;;;;;6.30;2.10;;;;;;;;;;5198980;27;20167;-68
2021/05/26 10:04:13;;;;;;;2.45;1.60;;;;;;;;;;5199519;27;20187;-68
2021/05/26 10:06:40;;;;;;;9.00;1.92;;;;;;;;;;5200957;27;20081;-68
2021/05/26 10:09:09;;;;;;;2.30;1.55;;;;;;;;;;5201092;27;20409;-68
2021/05/26 10:11:35;;;;;;;3.10;1.65;;;;;;;;;;5182098;27;20097;-68
2021/05/26 10:14:03;;;;;;;6.32;1.98;;;;;;;;;;5201107;27;20535;-68
2021/05/26 10:16:32;;;;;;;3.20;1.62;;;;;;;;;;5200863;27;20525;-68
2021/05/26 10:19:01;;;;;;;4.47;1.75;;;;;;;;;;5200939;27;20100;-68
2021/05/26 10:21:27;;;;;;;2.83;1.80;;;;;;;;;;5199457;27;20089;-68
2021/05/26 10:23:53;;;;;;;3.22;1.70;;;;;;;;;;5200795;27;20164;-68
2021/05/26 10:26:48;;;;;;;1.87;1.67;;;;;;;;;;5181654;27;20161;-68
2021/05/26 10:29:29;;;;;;;2.35;1.42;;;;;;;;;;5200903;27;20412;-71
2021/05/26 10:31:55;;;;;;;1.50;1.40;;;;;;;;;;5198929;27;20085;-71
2021/05/26 10:34:42;;;;;;;2.45;1.45;;;;;;;;;;5199251;27;20066;-71
2021/05/26 10:37:08;;;;;;;2.12;1.50;;;;;;;;;;5199339;27;20083;-71
2021/05/26 10:39:34;;;;;;;1.55;1.42;;;;;;;;;;5200865;27;20104;-71
2021/05/26 10:42:01;;;;;;;4.78;1.92;;;;;;;;;;5199145;27;20098;-71
2021/05/26 10:44:59;;;;;;;3.08;1.50;;;;;;;;;;5200917;27;20125;-71
2021/05/26 10:47:48;;;;;;;5.10;1.80;;;;;;;;;;5200865;27;20554;-71
2021/05/26 10:50:26;;;;;;;2.92;1.58;;;;;;;;;;5200822;27;20153;-71
2021/05/26 10:52:55;;;;;;;3.87;1.55;;;;;;;;;;5199333;27;20092;-72
2021/05/26 10:55:40;;;;;;;2.25;1.70;;;;;;;;;;5201118;27;20062;-71
2021/05/26 10:58:24;;;;;;;4.07;1.58;;;;;;;;;;5199438;27;20077;-71
2021/05/26 11:00:57;;;;;;;2.80;1.30;;;;;;;;;;5201106;27;20413;-71
2021/05/26 11:03:28;;;;;;;2.20;1.73;;;;;;;;;;5200875;27;20073;-71
2021/05/26 11:05:56;;;;;;;2.80;1.60;;;;;;;;;;5202560;27;20160;-72
2021/05/26 11:08:52;;;;;;;1.60;1.50;;;;;;;;;;5203174;27;20090;-70
2021/05/26 11:11:34;;;;;;;2.35;1.60;;;;;;;;;;5203427;27;20394;-71
2021/05/26 11:14:06;;;;;;;8.07;1.67;;;;;;;;;;5204350;27;20154;-70
2021/05/26 11:16:41;;;;;;;5.18;1.60;;;;;;;;;;5219064;27;20058;-70
2021/05/26 11:19:11;;;;;;;1.92;1.50;;;;;;;;;;5222107;27;20047;-69
2021/05/26 11:21:41;;;;;;;3.00;1.70;;;;;;;;;;5222780;27;20073;-70
2021/05/26 11:24:07;;;;;;;2.90;1.70;;;;;;;;;;5212897;27;20093;-76
2021/05/26 11:26:35;;;;;;;1.25;1.10;;;;;;;;;;5203270;27;20097;-69
2021/05/26 11:29:04;;;;;;;2.83;1.55;;;;;;;;;;5202269;27;20097;-70
2021/05/26 11:31:30;;;;;;;2.80;1.50;;;;;;;;;;5202221;27;20105;-69
2021/05/26 11:33:56;;;;;;;2.37;1.50;;;;;;;;;;5202081;27;20077;-68
2021/05/26 11:36:44;;;;;;;5.25;1.77;;;;;;;;;;5202831;27;20096;-70
2021/05/26 11:39:17;;;;;;;6.50;1.95;;;;;;;;;;5204910;27;20096;-71
2021/05/26 11:41:46;;;;;;;2.08;1.87;;;;;;;;;;5213212;27;20082;-70
2021/05/26 11:44:12;;;;;;;2.80;1.48;;;;;;;;;;5220252;27;20105;-68
2021/05/26 11:46:43;;;;;;;1.58;1.48;;;;;;;;;;5223846;27;20247;-71
2021/05/26 11:49:12;;;;;;;2.87;1.52;;;;;;;;;;5208192;27;20121;-71
2021/05/26 11:51:39;;;;;;;5.30;1.75;;;;;;;;;;5206839;27;20086;-70
2021/05/26 11:54:09;;;;;;;1.55;1.45;;;;;;;;;;5202849;27;20582;-70
2021/05/26 11:56:35;;;;;;;3.15;2.05;;;;;;;;;;5204381;27;20149;-71
2021/05/26 11:59:00;;;;;;;2.33;1.92;;;;;;;;;;5203509;27;20073;-71
2021/05/26 12:01:33;;;;;;;2.65;2.15;;;;;;;;;;5203131;27;20070;-71
2021/05/26 12:04:01;;;;;;;2.42;1.62;;;;;;;;;;5203320;27;20187;-71
2021/05/26 12:06:27;;;;;;;4.45;2.00;;;;;;;;;;5202064;27;20081;-71
2021/05/26 12:08:54;;;;;;;5.07;2.17;;;;;;;;;;5202242;27;20066;-71
2021/05/26 12:11:22;;;;;;;4.87;2.08;;;;;;;;;;5202330;27;20157;-71
2021/05/26 12:13:49;;;;;;;3.92;2.22;;;;;;;;;;5203935;27;20501;-70
2021/05/26 12:16:19;;;;;;;2.87;1.90;;;;;;;;;;5203476;27;20093;-72
2021/05/26 12:18:55;;;;;;;8.23;1.83;;;;;;;;;;5205344;27;20065;-71
2021/05/26 12:21:22;;;;;;;5.60;1.98;;;;;;;;;;5205029;27;20086;-72
2021/05/26 12:23:54;;;;;;;1.50;1.40;;;;;;;;;;5205702;27;20480;-73
2021/05/26 12:26:33;;;;;;;1.98;1.73;;;;;;;;;;5185920;27;20275;-73
2021/05/26 12:29:02;;;;;;;4.80;2.25;;;;;;;;;;5204053;27;20089;-71
2021/05/26 12:31:29;;;;;;;4.50;2.17;;;;;;;;;;5205405;27;20080;-72
2021/05/26 12:33:56;;;;;;;1.55;1.40;;;;;;;;;;5204574;27;20078;-72
2021/05/26 12:36:24;;;;;;;3.20;1.58;;;;;;;;;;5206673;27;20097;-69
2021/05/26 12:39:01;;;;;;;1.40;1.30;;;;;;;;;;5203793;27;20093;-70
2021/05/26 12:41:32;;;;;;;1.50;1.40;;;;;;;;;;5205111;27;20066;-70
2021/05/26 12:44:00;;;;;;;1.55;1.45;;;;;;;;;;5202838;27;20162;-69
2021/05/26 12:46:37;;;;;;;1.58;1.33;;;;;;;;;;5204725;27;20183;-70
2021/05/26 12:49:06;;;;;;;5.15;1.70;;;;;;;;;;5204409;27;20065;-71
2021/05/26 12:51:45;;;;;;;3.47;2.25;;;;;;;;;;5203665;27;20081;-68
2021/05/26 12:54:14;;;;;;;6.40;1.52;;;;;;;;;;5203259;27;20096;-67
2021/05/26 12:56:40;;;;;;;3.35;1.35;;;;;;;;;;5202445;27;20092;-71
2021/05/26 12:59:06;;;;;;;4.15;1.40;;;;;;;;;;5183038;27;20084;-67
2021/05/26 13:01:32;;;;;;;4.00;1.45;;;;;;;;;;5200264;27;20164;-69
2021/05/26 13:04:12;;;;;;;1.50;1.40;;;;;;;;;;5201477;27;20094;-68
2021/05/26 13:06:43;;;;;;;1.77;1.65;;;;;;;;;;5201342;27;20065;-68
2021/05/26 13:09:10;;;;;;;1.10;1.10;;;;;;;;;;5201614;27;20073;-68
2021/05/26 13:11:43;;;;;;;1.40;1.30;;;;;;;;;;5201643;27;20101;-68
2021/05/26 13:14:09;;;;;;;1.40;1.30;;;;;;;;;;5201270;27;20074;-67
2021/05/26 13:16:39;;;;;;;1.55;1.45;;;;;;;;;;5200074;27;20066;-68
2021/05/26 13:19:05;;;;;;;1.67;1.12;;;;;;;;;;5199970;27;20066;-68
2021/05/26 13:21:31;;;;;;;1.73;1.40;;;;;;;;;;5201253;27;20077;-66
2021/05/26 13:23:57;;;;;;;1.42;1.30;;;;;;;;;;5201279;27;20069;-67
2021/05/26 13:26:23;;;;;;;4.12;1.62;;;;;;;;;;5201055;27;20537;-66
2021/05/26 13:28:49;;;;;;;2.40;1.42;;;;;;;;;;5199054;27;20093;-68
2021/05/26 13:31:15;;;;;;;1.80;1.30;;;;;;;;;;5201003;27;20088;-68
2021/05/26 13:33:41;;;;;;;1.30;1.20;;;;;;;;;;5200796;27;20187;-69
2021/05/26 13:36:07;;;;;;;2.37;1.35;;;;;;;;;;5200915;27;20123;-69
2021/05/26 13:38:33;;;;;;;6.35;1.77;;;;;;;;;;5201476;27;20062;-70
2021/05/26 13:40:59;;;;;;;4.80;2.65;;;;;;;;;;5200850;27;20540;-70
2021/05/26 13:43:27;;;;;;;1.40;1.30;;;;;;;;;;5201043;27;20150;-67
2021/05/26 13:45:53;;;;;;;5.82;1.60;;;;;;;;;;5201225;27;20062;-66
2021/05/26 13:48:20;;;;;;;2.37;1.40;;;;;;;;;;5201111;27;20080;-67
2021/05/26 13:50:46;;;;;;;1.40;1.25;;;;;;;;;;5200978;27;20094;-68
2021/05/26 13:53:13;;;;;;;2.10;1.58;;;;;;;;;;5201307;27;20090;-68
2021/05/26 13:55:41;;;;;;;1.15;1.15;;;;;;;;;;5202033;27;20095;-67
2021/05/26 13:58:07;;;;;;;1.10;1.10;;;;;;;;;;5200239;27;20084;-67
2021/05/26 14:00:34;;;;;;;1.85;1.40;;;;;;;;;;5200226;27;20082;-68
2021/05/26 14:03:01;;;;;;;2.40;2.00;;;;;;;;;;5199561;27;20074;-67
2021/05/26 14:05:27;;;;;;;4.53;1.30;;;;;;;;;;5199892;27;20558;-67
2021/05/26 14:07:53;;;;;;;1.85;1.33;;;;;;;;;;5201074;27;20085;-67
2021/05/26 14:10:20;;;;;;;1.67;1.30;;;;;;;;;;5201772;27;20068;-67
2021/05/26 14:12:47;;;;;;;1.80;1.37;;;;;;;;;;5201861;27;20487;-68
2021/05/26 14:15:14;;;;;;;1.67;1.40;;;;;;;;;;5199870;27;20085;-69
2021/05/26 14:17:40;;;;;;;3.85;2.05;;;;;;;;;;5201582;27;20086;-68
2021/05/26 14:20:07;;;;;;;1.20;1.10;;;;;;;;;;5201258;27;20077;-70
2021/05/26 14:22:33;;;;;;;1.80;1.52;;;;;;;;;;5199914;27;20132;-68
2021/05/26 14:24:59;;;;;;;2.72;1.35;;;;;;;;;;5201559;27;20172;-70
2021/05/26 14:27:25;;;;;;;1.42;1.33;;;;;;;;;;5201419;27;20066;-68
2021/05/26 14:29:51;;;;;;;7.68;2.00;;;;;;;;;;5201247;27;20185;-69
2021/05/26 14:32:17;;;;;;;1.45;1.35;;;;;;;;;;5199761;27;20063;-69
2021/05/26 14:34:46;;;;;;;2.40;1.60;;;;;;;;;;5182990;27;20148;-69
2021/05/26 14:37:18;;;;;;;2.72;1.67;;;;;;;;;;5201742;27;20397;-69
2021/05/26 14:39:48;;;;;;;6.62;2.10;;;;;;;;;;5201281;27;20073;-70
2021/05/26 14:42:16;;;;;;;5.25;2.00;;;;;;;;;;5199198;27;20070;-68
2021/05/26 14:44:43;;;;;;;1.23;1.12;;;;;;;;;;5199259;27;20065;-68
2021/05/26 14:47:09;;;;;;;7.68;2.00;;;;;;;;;;5202239;27;20389;-67
2021/05/26 14:49:35;;;;;;;1.20;1.10;;;;;;;;;;5200692;27;20547;-66
2021/05/26 14:52:01;;;;;;;1.90;1.45;;;;;;;;;;5202208;27;20073;-66
2021/05/26 14:54:27;;;;;;;2.17;1.10;;;;;;;;;;5202353;27;20069;-66
2021/05/26 14:56:53;;;;;;;1.25;1.15;;;;;;;;;;5200959;27;20085;-66
2021/05/26 14:59:19;;;;;;;1.30;1.20;;;;;;;;;;5200704;27;20186;-67
2021/05/26 15:01:45;;;;;;;4.97;1.42;;;;;;;;;;5202270;27;20169;-66
2021/05/26 15:04:12;;;;;;;2.05;1.37;;;;;;;;;;5202355;27;20093;-67
2021/05/26 15:06:38;;;;;;;4.40;1.33;;;;;;;;;;5202367;27;20074;-67
2021/05/26 15:09:04;;;;;;;3.85;2.17;;;;;;;;;;5202184;27;20102;-69
2021/05/26 15:11:30;;;;;;;1.60;1.50;;;;;;;;;;5202438;27;20464;-68
2021/05/26 15:13:56;;;;;;;4.18;1.35;;;;;;;;;;5202129;27;20080;-67
2021/05/26 15:16:22;;;;;;;3.20;2.20;;;;;;;;;;5202160;27;20108;-67